Latest Coastal Weather Observations for Edithburgh

IDS60701

Issued at 7:51 pm CST Monday 26 June 2017 (issued every 10 minutes, with the page automatically refreshed every 10 minutes)

About coastal observations | Map of coastal stations | Coastal observations for SA | Marine services | Other Formats
Station Details ID: 022046 Name: EDITHBURGH Lat: -35.11 Lon: 137.74 Height: 6.0 m
Data from the previous 72 hours. | See also: Recent months at Edithburgh
Date/Time
CST
Temp
°C
Wind Pressure Rain since
9am
mm
Weather Cloud Vis
km
Sea
Height
m
Swell
Dir  Spd
kts
Gust
kts
hPa Trend Height
m
Period
s
Dir
26/07:30pm 10.9 NW 3 3 1025.1 - 0.0 - - - - - - -
26/07:00pm 10.9 NW 2 3 1024.8 - 0.0 - - - - - - -
26/06:30pm 10.9 NW 1 3 1024.4 - 0.0 - - - - - - -
26/06:00pm 10.9 N 3 3 1024.3 - 0.0 - - - - - - -
26/05:30pm 11.5 N 3 5 1024.5 - 0.0 - - - - - - -
26/05:00pm 13.1 NNE 2 3 1024.0 - 0.0 - - - - - - -
26/04:30pm 13.4 ENE 3 3 1023.9 - 0.0 - - - - - - -
26/04:00pm 13.7 ENE 2 3 1024.2 - 0.0 - - - - - - -
26/03:30pm 13.6 NE 3 4 1024.4 - 0.0 - - - - - - -
26/03:00pm 13.7 NE 4 6 1024.1 - 0.0 - - - - - - -
26/02:30pm 13.9 ENE 3 5 1024.1 - 0.0 - - - - - - -
26/02:00pm 14.9 NE 3 5 1024.2 - 0.0 - - - - - - -
26/01:30pm 14.8 NNE 3 5 1024.6 - 0.0 - - - - - - -
26/01:00pm 14.1 NE 3 5 1024.8 - 0.0 - - - - - - -
26/12:30pm 13.8 ENE 4 5 1024.8 - 0.0 - - - - - - -
26/12:00pm 13.9 E 5 8 1025.0 - 0.0 - - - - - - -
26/11:30am 14.2 SSE 4 5 1025.2 - 0.0 - - - - - - -
26/11:00am 13.6 SE 3 5 1025.5 - 0.0 - - - - - - -
26/10:30am 13.5 CALM 0 1 1025.6 - 0.0 - - - - - - -
26/10:00am 12.6 NW 3 3 1025.7 - 0.0 - - - - - - -
26/09:30am 11.5 NW 3 3 1025.4 - 0.0 - - - - - - -
26/09:00am 9.0 NW 3 5 1025.2 - 5.4 - - - - - - -
26/08:30am 8.3 NW 3 5 1024.8 - 5.4 - - - - - - -
26/08:00am 7.0 WNW 5 6 1024.4 - 5.4 - - - - - - -
26/07:30am 6.6 W 4 5 1024.0 - 5.2 - - - - - - -
26/07:00am 7.1 WNW 2 4 1023.8 - 5.2 - - - - - - -
26/06:30am 8.5 CALM 0 2 1023.6 - 5.2 - - - - - - -
26/06:00am 8.8 WNW 5 5 1023.5 - 5.2 - - - - - - -
26/05:30am 8.5 WNW 3 4 1023.3 - 5.2 - - - - - - -
26/05:00am 8.3 WNW 5 6 1023.1 - 5.2 - - - - - - -
26/04:30am 6.7 WNW 3 3 1022.8 - 5.2 - - - - - - -
26/04:00am 6.5 W 2 3 1022.7 - 5.2 - - - - - - -
26/03:30am 8.5 SW 3 4 1022.7 - 5.2 - - - - - - -
26/03:00am 7.8 W 2 3 1022.8 - 5.2 - - - - - - -
26/02:30am 7.2 WNW 5 7 1022.6 - 5.2 - - - - - - -
26/02:00am 7.7 NW 6 8 1022.5 - 5.2 - - - - - - -
26/01:30am 8.5 WNW 5 6 1022.4 - 5.2 - - - - - - -
26/01:00am 8.5 NW 6 8 1022.3 - 5.0 - - - - - - -
26/12:30am 8.3 W 5 6 1022.3 - 4.8 - - - - - - -
26/12:00am 8.6 WNW 6 7 1022.2 - 4.8 Recent precip. - - - - - -
 
Date/Time
CST
Temp
°C
Wind Pressure Rain since
9am
mm
Weather Cloud Vis
km
Sea
Height
m
Swell
Dir  Spd
kts
Gust
kts
hPa Trend Height
m
Period
s
Dir
25/11:30pm 8.5 WNW 5 7 1022.3 - 4.8 - - - - - - -
25/11:00pm 9.0 WNW 6 6 1022.5 - 4.4 - - - - - - -
25/10:30pm 8.7 WNW 7 8 1022.3 - 4.4 - - - - - - -
25/10:00pm 8.6 WNW 7 8 1022.3 - 4.4 - - - - - - -
25/09:30pm 8.4 WNW 8 10 1022.1 - 4.4 - - - - - - -
25/09:00pm 8.5 NW 7 9 1022.0 - 4.4 - - - - - - -
25/08:30pm 8.3 NW 6 7 1021.9 - 4.4 - - - - - - -
25/08:00pm 10.0 WNW 6 8 1021.7 - 4.4 - - - - - - -
25/07:30pm 10.4 WNW 7 9 1021.4 - 4.4 - - - - - - -
25/07:00pm 10.7 WNW 6 7 1021.2 - 4.4 - - - - - - -
25/06:30pm 11.2 WNW 6 7 1021.1 - 4.4 - - - - - - -
25/06:00pm 12.0 W 8 10 1021.0 - 4.4 - - - - - - -
25/05:30pm 12.7 WSW 6 8 1020.7 - 4.4 - - - - - - -
25/05:00pm 12.8 WSW 10 15 1020.6 - 4.4 - - - - - - -
25/04:30pm 13.7 W 7 10 1020.4 - 4.4 - - - - - - -
25/04:00pm 14.4 W 8 12 1020.2 - 4.4 - - - - - - -
25/03:30pm 14.6 WSW 10 15 1020.1 - 4.4 - - - - - - -
25/03:00pm 14.9 WSW 11 16 1019.7 - 4.4 - - - - - - -
25/02:30pm 14.8 WSW 11 17 1019.5 - 4.4 - - - - - - -
25/02:00pm 14.1 SW 5 8 1019.5 - 4.4 - - - - - - -
25/01:30pm 14.2 SW 5 7 1019.7 - 4.4 - - - - - - -
25/01:00pm 12.5 SW 6 9 1020.0 - 4.4 - - - - - - -
25/12:30pm 12.5 SW 6 10 1020.3 - 4.4 - - - - - - -
25/12:00pm 12.4 WSW 7 12 1020.7 - 4.2 Rain - - - - - -
25/11:30am 12.6 SW 5 7 1020.7 - 4.0 - - - - - - -
25/11:00am 11.7 SW 5 7 1021.0 - 3.8 - - - - - - -
25/10:30am 11.6 S 3 4 1020.8 - 2.6 - - - - - - -
25/10:00am 11.2 WSW 2 4 1020.7 - 2.0 - - - - - - -
25/09:30am 11.1 WSW 5 7 1020.3 - 0.6 - - - - - - -
25/09:00am 10.4 WNW 1 2 1019.9 - 0.0 - - - - - - -
25/08:30am 9.7 WNW 2 3 1019.5 - 0.0 - - - - - - -
25/08:00am 7.8 WNW 1 2 1019.3 - 0.0 - - - - - - -
25/07:30am 7.5 WNW 3 4 1019.1 - 0.0 - - - - - - -
25/07:00am 7.3 WNW 2 2 1018.8 - 0.0 - - - - - - -
25/06:30am 6.5 NW 5 6 1018.6 - 0.0 - - - - - - -
25/06:00am 6.7 NW 3 4 1018.3 - 0.0 - - - - - - -
25/05:30am 5.9 WNW 3 4 1018.1 - 0.0 - - - - - - -
25/05:00am 4.1 NW 4 5 1018.1 - 0.0 - - - - - - -
25/04:30am 5.7 WNW 4 5 1018.0 - 0.0 - - - - - - -
25/04:00am 5.5 NW 4 5 1018.1 - 0.0 - - - - - - -
25/03:30am 6.3 WNW 3 4 1018.2 - 0.0 - - - - - - -
25/03:00am 6.9 WNW 2 3 1018.5 - 0.0 - - - - - - -
25/02:30am 6.8 WNW 5 7 1018.7 - 0.0 - - - - - - -
25/02:00am 5.7 NW 6 7 1018.6 - 0.0 - - - - - - -
25/01:30am 6.3 NW 4 4 1018.6 - 0.0 - - - - - - -
25/01:00am 8.1 WNW 3 5 1018.6 - 0.0 - - - - - - -
25/12:30am 8.3 WNW 5 6 1018.7 - 0.0 - - - - - - -
25/12:00am 7.5 WNW 3 4 1018.8 - 0.0 - - - - - - -
 
Date/Time
CST
Temp
°C
Wind Pressure Rain since
9am
mm
Weather Cloud Vis
km
Sea
Height
m
Swell
Dir  Spd
kts
Gust
kts
hPa Trend Height
m
Period
s
Dir
24/11:30pm 8.8 NW 4 5 1019.0 - 0.0 - - - - - - -
24/11:00pm 8.9 NNW 2 3 1018.7 - 0.0 - - - - - - -
24/10:30pm 10.2 CALM 0 2 1018.8 - 0.0 - - - - - - -
24/10:00pm 12.0 WSW 1 1 1018.9 - 0.0 - - - - - - -
24/09:30pm 10.8 S 3 4 1018.9 - 0.0 - - - - - - -
24/09:00pm 11.0 S 2 3 1018.9 - 0.0 - - - - - - -
24/08:30pm 11.1 SSW 3 4 1018.9 - 0.0 - - - - - - -
24/08:00pm 10.3 W 4 4 1018.8 - 0.0 - - - - - - -
24/07:30pm 10.7 W 4 5 1018.8 - 0.0 - - - - - - -
24/07:00pm 12.0 W 3 4 1018.6 - 0.0 - - - - - - -
24/06:30pm 12.4 W 3 4 1018.5 - 0.0 - - - - - - -
24/06:00pm 13.1 WSW 4 5 1018.4 - 0.0 - - - - - - -
24/05:30pm 13.6 W 2 3 1018.3 - 0.0 - - - - - - -
24/05:00pm 14.2 W 2 4 1018.3 - 0.0 - - - - - - -
24/04:30pm 14.6 CALM 0 2 1018.2 - 0.0 - - - - - - -
24/04:00pm 14.9 CALM 0 0 1018.1 - 0.0 - - - - - - -
24/03:30pm 14.7 ENE 2 3 1017.9 - 0.0 - - - - - - -
24/03:00pm 14.7 NNE 4 6 1018.0 - 0.0 - - - - - - -
24/02:30pm 14.8 ENE 3 5 1018.1 - 0.0 - - - - - - -
24/02:00pm 15.3 ESE 5 7 1018.3 - 0.0 - - - - - - -
24/01:30pm 15.1 NE 4 5 1018.6 - 0.0 - - - - - - -
24/01:00pm 15.5 NE 4 6 1018.8 - 0.0 - - - - - - -
24/12:30pm 14.3 NE 5 7 1019.3 - 0.0 - - - - - - -
24/12:00pm 14.3 NNE 5 7 1019.6 - 0.0 - - - - - - -
24/11:30am 15.6 NNE 5 7 1019.9 - 0.0 - - - - - - -
24/11:00am 15.3 NNE 5 7 1020.0 - 0.0 - - - - - - -
24/10:30am 15.4 ENE 4 5 1020.4 - 0.0 - - - - - - -
24/10:00am 15.4 NE 3 4 1020.3 - 0.0 - - - - - - -
24/09:30am 15.0 NE 2 3 1020.1 - 0.0 - - - - - - -
24/09:00am 13.7 CALM 0 0 1020.0 - 0.2 - - - - - - -
24/08:30am 11.1 NNE 2 3 1019.7 - 0.2 - - - - - - -
24/08:00am 12.3 NE 3 4 1019.5 - 0.2 - - - - - - -
24/07:30am 11.6 ESE 3 5 1019.5 - 0.2 - - - - - - -
24/07:00am 10.2 SE 1 2 1019.3 - 0.2 - - - - - - -
24/06:30am 11.2 ENE 3 4 1019.0 - 0.2 - - - - - - -
24/06:00am 10.1 ESE 2 4 1018.9 - 0.2 - - - - - - -
24/05:30am 10.4 S 4 5 1018.6 - 0.2 - - - - - - -
24/05:00am 8.0 SW 3 4 1018.6 - 0.2 - - - - - - -
24/04:30am 7.2 CALM 0 0 1018.7 - 0.2 - - - - - - -
24/04:00am 7.1 CALM 0 0 1018.7 - 0.2 - - - - - - -
24/03:57am 7.3 CALM 0 0 1018.7 - 0.2 - - - - - - -
24/03:30am 12.3 ESE 2 3 1018.7 - 0.2 - - - - - - -
24/03:00am 13.2 ESE 4 4 1018.6 - 0.2 - - - - - - -
24/02:30am 13.4 ESE 4 5 1018.5 - 0.2 - - - - - - -
24/02:00am 13.7 ESE 5 7 1018.7 - 0.2 - - - - - - -
24/01:30am 13.6 SE 6 7 1018.5 - 0.0 - - - - - - -
24/01:00am 13.1 SSE 6 7 1018.4 - 0.0 - - - - - - -
24/12:30am 12.8 S 7 8 1018.5 - 0.0 - - - - - - -
24/12:00am 12.4 S 6 8 1018.6 - 0.0 - - - - - - -
 
Date/Time
CST
Temp
°C
Wind Pressure Rain since
9am
mm
Weather Cloud Vis
km
Sea
Height
m
Swell
Dir  Spd
kts
Gust
kts
hPa Trend Height
m
Period
s
Dir
23/11:30pm 12.2 S 5 6 1018.7 - 0.0 - - - - - - -
23/11:00pm 9.6 SW 5 6 1018.7 - 0.0 - - - - - - -
23/10:30pm 8.7 WSW 4 6 1018.8 - 0.0 - - - - - - -
23/10:00pm 8.9 WSW 4 5 1018.7 - 0.0 - - - - - - -
23/09:30pm 8.4 W 5 6 1018.6 - 0.0 - - - - - - -
23/09:00pm 9.7 WNW 7 7 1018.6 - 0.0 - - - - - - -
23/08:30pm 8.9 WNW 5 7 1018.4 - 0.0 - - - - - - -
23/08:00pm 8.7 WNW 4 6 1018.2 - 0.0 - - - - - - -

Other Formats:

Comma delimited format used in spreadsheet applications
http://www.bom.gov.au/fwo/IDS60701/IDS60701.94809.axf

JavaScript Object Notation format (JSON) in row-major order
http://www.bom.gov.au/fwo/IDS60701/IDS60701.94809.json